Time;durP1;ratioP1;P1;durP2;ratioP2;P2;SDS_P1;SDS_P2;PMS_P1;PMS_P2;Temp;Humidity;BMP_temperature;BMP_pressure;BME280_temperature;BME280_humidity;BME280_pressure;Samples;Min_cycle;Max_cycle;Signal;HPM_P1;HPM_P2
2021/01/12 19:19:21;;;;;;;60.92;26.87;;;;;;;0.34;76.39;97473.73;2197066;79;23548;-82
2021/01/12 19:22:23;;;;;;;54.05;25.10;;;;;;;0.27;76.43;97479.97;2162361;82;22304;-84
2021/01/12 19:25:25;;;;;;;43.02;23.30;;;;;;;0.28;76.91;97479.01;2144128;82;21289;-84
2021/01/12 19:28:27;;;;;;;47.33;24.32;;;;;;;0.28;76.67;97479.48;2177345;82;21158;-83
2021/01/12 19:31:29;;;;;;;56.65;28.60;;;;;;;0.27;76.68;97477.84;2177449;82;21108;-83
2021/01/12 19:34:31;;;;;;;77.40;35.95;;;;;;;0.29;76.82;97481.11;2177793;82;21139;-78
2021/01/12 19:37:33;;;;;;;60.80;29.02;;;;;;;0.30;77.42;97475.48;2179594;82;21293;-81
2021/01/12 19:40:35;;;;;;;55.73;26.93;;;;;;;0.29;76.98;97473.38;2153810;82;21143;-78
2021/01/12 19:43:37;;;;;;;43.20;23.02;;;;;;;0.30;77.25;97478.86;2142164;83;21281;-81
2021/01/12 19:46:41;;;;;;;53.78;26.48;;;;;;;0.28;77.25;97479.01;2140158;83;21587;-84
2021/01/12 19:49:42;;;;;;;57.20;26.82;;;;;;;0.27;76.98;97483.83;2140050;83;21312;-84
2021/01/12 19:52:44;;;;;;;52.20;25.68;;;;;;;0.29;77.43;97483.68;2140078;83;21309;-84
2021/01/12 19:55:46;;;;;;;51.40;25.30;;;;;;;0.29;77.78;97487.55;2140026;83;21800;-84
2021/01/12 19:58:48;;;;;;;53.02;26.50;;;;;;;0.31;77.70;97479.67;2141413;83;21317;-82
2021/01/12 20:01:50;;;;;;;47.17;24.45;;;;;;;0.32;77.56;97482.57;2141490;83;21305;-77
2021/01/12 20:04:52;;;;;;;147.02;62.95;;;;;;;0.31;77.86;97492.06;2142124;83;21293;-77
2021/01/12 20:07:55;;;;;;;216.10;84.07;;;;;;;0.35;77.93;97489.52;2141982;83;21285;-82
2021/01/12 20:10:56;;;;;;;110.72;40.17;;;;;;;0.37;78.10;97481.19;2141737;83;21150;-83
2021/01/12 20:13:59;;;;;;;72.15;28.05;;;;;;;0.38;78.04;97479.42;2112577;83;21267;-82
2021/01/12 20:17:00;;;;;;;54.85;27.37;;;;;;;0.39;78.13;97476.70;2141620;83;21276;-81
2021/01/12 20:20:04;;;;;;;55.25;26.68;;;;;;;0.41;78.27;97488.14;2141885;83;21270;-84
2021/01/12 20:23:06;;;;;;;53.95;25.65;;;;;;;0.43;78.15;97484.45;2141859;83;21321;-84
2021/01/12 20:26:07;;;;;;;42.78;23.15;;;;;;;0.44;78.27;97486.07;2141569;83;21170;-81
2021/01/12 20:29:09;;;;;;;49.03;23.05;;;;;;;0.44;78.20;97481.40;2143039;83;21300;-79
2021/01/12 20:32:11;;;;;;;49.13;23.52;;;;;;;0.45;78.53;97486.88;2142895;83;21293;-78
2021/01/12 20:35:13;;;;;;;51.70;24.80;;;;;;;0.45;78.36;97480.44;2141382;83;21146;-83
2021/01/12 20:38:15;;;;;;;40.00;21.62;;;;;;;0.42;78.35;97477.69;2142528;83;21277;-79
2021/01/12 20:41:17;;;;;;;162.30;61.98;;;;;;;0.50;78.80;97479.06;2141442;83;21724;-84
2021/01/12 20:44:19;;;;;;;99.05;39.45;;;;;;;0.50;78.62;97489.36;2114044;83;21297;-83
2021/01/12 20:47:20;;;;;;;74.55;28.85;;;;;;;0.52;78.59;97482.77;2140616;83;21297;-82
2021/01/12 20:50:22;;;;;;;54.70;24.52;;;;;;;0.51;78.60;97480.67;2140427;83;21730;-85
2021/01/12 20:53:24;;;;;;;48.50;24.90;;;;;;;0.50;78.73;97477.77;2140526;83;21327;-82
2021/01/12 20:56:26;;;;;;;51.73;23.52;;;;;;;0.51;78.93;97477.30;2140375;83;21783;-82
2021/01/12 20:59:28;;;;;;;42.95;20.97;;;;;;;0.52;79.09;97473.28;2140787;83;21158;-83
2021/01/12 21:02:30;;;;;;;48.20;26.35;;;;;;;0.49;79.26;97472.29;2140278;83;21772;-82
2021/01/12 21:05:31;;;;;;;44.45;23.45;;;;;;;0.48;79.29;97469.39;2140399;83;21326;-83
2021/01/12 21:08:33;;;;;;;44.23;23.42;;;;;;;0.49;79.20;97461.98;2140280;83;21309;-81
2021/01/12 21:11:36;;;;;;;41.30;22.95;;;;;;;0.51;79.28;97469.09;2140369;83;21733;-81
2021/01/12 21:14:38;;;;;;;50.15;24.75;;;;;;;0.54;79.48;97467.97;2140275;83;21322;-80
2021/01/12 21:17:39;;;;;;;69.47;35.63;;;;;;;0.53;79.59;97464.59;2135611;83;21184;-80
2021/01/12 21:20:41;;;;;;;127.67;52.48;;;;;;;0.53;79.45;97465.88;2123587;84;21167;-82
2021/01/12 21:23:43;;;;;;;73.02;30.05;;;;;;;0.57;79.54;97463.84;2123514;84;21156;-82
2021/01/12 21:26:44;;;;;;;50.30;25.35;;;;;;;0.58;79.36;97459.02;2103044;84;21274;-81
2021/01/12 21:29:47;;;;;;;46.23;24.15;;;;;;;0.61;79.41;97458.70;2123440;84;21627;-80
2021/01/12 21:32:49;;;;;;;40.10;21.75;;;;;;;0.59;79.42;97459.34;2103098;84;21627;-81
2021/01/12 21:35:51;;;;;;;44.05;24.72;;;;;;;0.64;79.82;97463.59;2123389;84;21187;-81
2021/01/12 21:38:53;;;;;;;40.75;23.92;;;;;;;0.62;79.50;97457.75;2123626;84;21599;-81
2021/01/12 21:41:57;;;;;;;41.42;21.82;;;;;;;0.61;79.57;97454.84;2123704;83;21278;-82
2021/01/12 21:44:59;;;;;;;42.78;24.90;;;;;;;0.60;79.76;97455.80;2123384;83;21155;-82
2021/01/12 21:48:00;;;;;;;39.05;20.90;;;;;;;0.58;79.87;97459.02;2123535;84;21143;-82
2021/01/12 21:51:02;;;;;;;43.02;23.85;;;;;;;0.58;79.98;97459.02;2123551;84;21167;-82
2021/01/12 21:54:04;;;;;;;35.85;22.45;;;;;;;0.60;79.99;97457.09;2123621;83;21317;-81
2021/01/12 21:57:05;;;;;;;42.80;25.48;;;;;;;0.59;79.83;97456.77;2123311;83;21418;-80
2021/01/12 22:00:07;;;;;;;111.65;46.75;;;;;;;0.62;80.27;97454.37;2123386;84;21191;-82
2021/01/12 22:03:09;;;;;;;51.68;27.10;;;;;;;0.60;79.91;97455.00;2123392;83;21147;-82
2021/01/12 22:06:10;;;;;;;53.42;26.45;;;;;;;0.60;80.08;97454.52;2123436;84;21147;-82
2021/01/12 22:09:12;;;;;;;52.23;24.37;;;;;;;0.63;80.00;97455.98;2123373;83;21133;-81
2021/01/12 22:12:14;;;;;;;42.00;21.10;;;;;;;0.68;80.04;97453.78;2123603;84;21583;-82
2021/01/12 22:15:15;;;;;;;46.58;25.35;;;;;;;0.67;80.11;97445.73;2123437;83;21163;-81
2021/01/12 22:18:19;;;;;;;38.80;22.65;;;;;;;0.65;80.31;97443.78;2130279;83;21143;-82
2021/01/12 22:21:21;;;;;;;45.12;25.10;;;;;;;0.66;80.06;97450.55;2140356;83;21705;-81
2021/01/12 22:24:22;;;;;;;39.88;21.70;;;;;;;0.68;80.20;97452.02;2140179;83;21705;-82
2021/01/12 22:27:24;;;;;;;39.70;22.15;;;;;;;0.69;80.02;97444.61;2140407;83;21636;-82
2021/01/12 22:30:26;;;;;;;37.78;23.07;;;;;;;0.71;80.12;97432.39;2140218;83;21348;-82
2021/01/12 22:33:27;;;;;;;41.92;23.65;;;;;;;0.71;80.30;97434.16;2140537;83;21182;-81
2021/01/12 22:36:29;;;;;;;122.45;57.83;;;;;;;0.68;80.35;97435.75;2140240;83;21825;-83
2021/01/12 22:39:31;;;;;;;103.65;42.85;;;;;;;0.67;80.29;97427.69;2140677;83;21302;-82
2021/01/12 22:42:33;;;;;;;57.48;27.50;;;;;;;0.67;80.27;97433.66;2141915;83;21293;-84
2021/01/12 22:45:35;;;;;;;46.10;24.07;;;;;;;0.68;80.60;97433.98;2140687;83;21270;-84
2021/01/12 22:48:37;;;;;;;42.15;23.32;;;;;;;0.72;80.39;97436.58;2140193;83;21598;-83
2021/01/12 22:51:38;;;;;;;46.68;24.37;;;;;;;0.72;80.55;97432.71;2140137;83;21301;-83
2021/01/12 22:54:40;;;;;;;42.83;24.60;;;;;;;0.67;80.35;97424.64;2140629;83;21329;-84
2021/01/12 22:57:42;;;;;;;47.45;24.77;;;;;;;0.67;80.45;97432.84;2140295;83;21310;-83
2021/01/12 23:00:43;;;;;;;42.03;22.40;;;;;;;0.69;80.61;97428.34;2140248;83;21202;-82
2021/01/12 23:03:45;;;;;;;38.28;22.10;;;;;;;0.70;80.61;97429.48;2140585;83;21305;-82
2021/01/12 23:06:47;;;;;;;37.98;22.50;;;;;;;0.74;80.67;97426.15;2140901;83;21294;-83
2021/01/12 23:09:49;;;;;;;37.60;22.82;;;;;;;0.74;80.87;97429.53;2140088;83;21733;-84
2021/01/12 23:12:50;;;;;;;47.53;26.60;;;;;;;0.75;80.82;97427.28;2140433;83;21313;-83
2021/01/12 23:15:52;;;;;;;104.35;51.90;;;;;;;0.77;80.80;97428.42;2140708;83;21313;-83
2021/01/12 23:18:53;;;;;;;67.58;32.40;;;;;;;0.76;80.71;97423.75;2140156;83;21305;-82
2021/01/12 23:21:55;;;;;;;40.23;21.33;;;;;;;0.78;80.87;97428.75;2140147;83;21262;-82
2021/01/12 23:24:57;;;;;;;41.55;21.45;;;;;;;0.75;81.05;97426.48;2140279;83;21301;-82
2021/01/12 23:27:58;;;;;;;31.70;19.27;;;;;;;0.68;81.40;97419.81;2140242;83;21282;-83
2021/01/12 23:31:00;;;;;;;30.43;19.57;;;;;;;0.72;81.41;97424.17;2140158;83;21328;-81
2021/01/12 23:34:01;;;;;;;29.37;17.37;;;;;;;0.71;81.26;97418.22;2113204;83;21180;-81
2021/01/12 23:37:03;;;;;;;29.63;17.55;;;;;;;0.74;81.63;97416.65;2140136;83;21281;-81
2021/01/12 23:40:05;;;;;;;34.67;20.48;;;;;;;0.74;81.64;97415.36;2140461;83;21298;-81
2021/01/12 23:43:07;;;;;;;28.73;18.05;;;;;;;0.73;81.58;97410.33;2140137;83;21147;-81
2021/01/12 23:46:08;;;;;;;30.23;17.40;;;;;;;0.75;81.37;97407.95;2140104;83;21115;-82
2021/01/12 23:49:11;;;;;;;29.07;16.80;;;;;;;0.81;81.57;97416.36;2140391;83;21317;-81
2021/01/12 23:52:16;;;;;;;35.83;27.55;;;;;;;0.86;81.62;97415.92;2140366;83;21159;-81
2021/01/12 23:55:17;;;;;;;64.58;34.83;;;;;;;0.87;81.52;97422.70;2140079;83;21337;-80
2021/01/12 23:58:19;;;;;;;44.00;22.27;;;;;;;0.84;81.67;97427.67;2139898;83;21309;-79
